createdAt,value
2024-01-24T00:00:36.110Z,58.55
2024-01-24T00:03:32.600Z,61.25
2024-01-24T00:06:23.329Z,63.30
2024-01-24T00:09:22.181Z,62.25
2024-01-24T00:12:20.730Z,62.55
2024-01-24T00:15:09.612Z,57.72
2024-01-24T00:18:22.081Z,59.55
2024-01-24T00:21:23.138Z,57.00
2024-01-24T00:24:12.295Z,61.53
2024-01-24T00:27:04.919Z,55.67
2024-01-24T00:29:59.013Z,45.00
2024-01-24T00:32:55.021Z,50.58
2024-01-24T00:35:45.336Z,50.65
2024-01-24T00:38:44.019Z,52.33
2024-01-24T00:41:36.504Z,57.92
2024-01-24T00:44:39.100Z,55.10
2024-01-24T00:47:31.685Z,58.47
2024-01-24T00:50:31.008Z,54.38
2024-01-24T00:53:29.046Z,60.85
2024-01-24T00:56:30.273Z,67.22
2024-01-24T00:59:25.596Z,60.25
2024-01-24T01:02:19.856Z,61.47
2024-01-24T01:05:08.506Z,63.83
2024-01-24T01:08:04.846Z,52.50
2024-01-24T01:11:00.836Z,57.85
2024-01-24T01:13:55.184Z,54.17
2024-01-24T01:16:58.726Z,61.28
2024-01-24T01:19:51.504Z,58.67
2024-01-24T01:22:45.831Z,57.58
2024-01-24T01:25:39.497Z,61.70
2024-01-24T01:28:33.554Z,61.15
2024-01-24T01:31:36.022Z,61.75
2024-01-24T01:34:35.409Z,65.78
2024-01-24T01:37:25.705Z,58.17
2024-01-24T01:40:15.896Z,61.53
2024-01-24T01:43:19.013Z,63.97
2024-01-24T01:46:22.361Z,60.17
2024-01-24T01:49:17.760Z,67.88
2024-01-24T01:52:11.329Z,66.65
2024-01-24T01:55:02.061Z,65.03
2024-01-24T02:00:46.690Z,62.70
2024-01-24T02:03:35.091Z,62.10
2024-01-24T02:06:34.337Z,62.40
2024-01-24T02:09:29.569Z,58.00
2024-01-24T02:12:20.196Z,62.10
2024-01-24T02:15:13.568Z,64.15
2024-01-24T02:18:05.619Z,67.50
2024-01-24T02:21:01.095Z,69.30
2024-01-24T02:23:49.807Z,75.57
2024-01-24T02:26:50.134Z,79.35
2024-01-24T02:29:44.531Z,72.90
2024-01-24T02:32:43.950Z,73.85
2024-01-24T02:35:40.652Z,69.35
2024-01-24T02:38:31.674Z,63.90
2024-01-24T02:41:35.048Z,67.95
2024-01-24T02:44:28.345Z,70.80
2024-01-24T02:47:24.161Z,69.40
2024-01-24T02:50:14.757Z,59.63
2024-01-24T02:53:18.350Z,64.32
2024-01-24T02:56:11.996Z,63.95
2024-01-24T02:59:08.010Z,58.38
2024-01-24T03:01:56.733Z,65.63
2024-01-24T03:04:53.212Z,69.07
2024-01-24T03:07:49.266Z,64.20
2024-01-24T03:10:38.814Z,58.97
2024-01-24T03:13:32.261Z,69.82
2024-01-24T03:19:17.662Z,69.22
2024-01-24T03:22:10.891Z,64.07
2024-01-24T03:24:57.424Z,68.47
2024-01-24T03:27:43.697Z,63.22
2024-01-24T03:30:37.673Z,65.63
2024-01-24T03:33:33.907Z,64.82
2024-01-24T03:36:23.412Z,67.25
2024-01-24T03:39:16.557Z,72.63
2024-01-24T03:45:00.305Z,60.63
2024-01-24T03:47:51.360Z,63.83
2024-01-24T03:50:45.129Z,70.80
2024-01-24T03:53:37.702Z,62.17
2024-01-24T03:56:29.148Z,65.88
2024-01-24T03:59:17.282Z,74.40
2024-01-24T04:02:15.107Z,62.22
2024-01-24T04:05:08.714Z,62.70
2024-01-24T04:08:01.725Z,68.07
2024-01-24T04:10:54.836Z,62.97
2024-01-24T04:13:46.659Z,61.17
2024-01-24T04:16:43.620Z,59.33
2024-01-24T04:19:36.222Z,66.32
2024-01-24T04:25:19.162Z,58.92
2024-01-24T04:28:13.059Z,63.78
2024-01-24T04:31:00.807Z,61.60
2024-01-24T04:34:01.223Z,60.05
2024-01-24T04:36:55.597Z,65.25
2024-01-24T04:39:43.917Z,64.68
2024-01-24T04:42:34.516Z,61.20
2024-01-24T04:45:27.599Z,60.35
2024-01-24T04:48:22.734Z,67.70
2024-01-24T04:51:17.609Z,66.20
2024-01-24T04:54:15.555Z,71.75
2024-01-24T04:57:07.134Z,74.18
2024-01-24T05:00:05.427Z,70.35
2024-01-24T05:02:57.508Z,72.72
2024-01-24T05:06:04.755Z,71.90
2024-01-24T05:09:00.380Z,67.85
2024-01-24T05:11:49.439Z,68.88
2024-01-24T05:14:41.331Z,64.65
2024-01-24T05:17:41.821Z,63.63
2024-01-24T05:20:32.492Z,59.20
2024-01-24T05:23:23.812Z,55.38
2024-01-24T05:26:19.108Z,58.97
2024-01-24T05:29:08.967Z,64.00
2024-01-24T05:32:03.953Z,64.38
2024-01-24T05:34:52.498Z,58.20
2024-01-24T05:37:43.892Z,58.70
2024-01-24T05:40:36.022Z,58.75
2024-01-24T05:43:30.441Z,52.72
2024-01-24T05:46:19.814Z,63.83
2024-01-24T05:49:10.463Z,60.65
2024-01-24T05:52:00.114Z,59.22
2024-01-24T05:54:50.147Z,60.53
2024-01-24T05:57:50.119Z,55.10
2024-01-24T06:00:45.287Z,57.88
2024-01-24T06:03:34.130Z,60.63
2024-01-24T06:06:26.607Z,55.70
2024-01-24T06:09:14.471Z,64.25
2024-01-24T06:12:12.199Z,54.95
2024-01-24T06:15:12.066Z,53.40
2024-01-24T06:18:07.397Z,54.20
2024-01-24T06:20:53.962Z,58.33
2024-01-24T06:23:44.854Z,50.50
2024-01-24T06:26:32.985Z,51.13
2024-01-24T06:30:14.901Z,58.22
2024-01-24T06:32:55.750Z,56.00
2024-01-24T06:36:12.462Z,54.53
2024-01-24T06:39:04.721Z,54.00
2024-01-24T06:42:15.486Z,51.08
2024-01-24T06:48:09.403Z,47.42
2024-01-24T06:50:59.000Z,52.75
2024-01-24T06:53:59.042Z,52.28
2024-01-24T06:56:47.337Z,48.22
2024-01-24T06:59:57.721Z,44.10
2024-01-24T07:03:12.116Z,45.45
2024-01-24T07:07:08.247Z,45.20
2024-01-24T07:10:11.978Z,46.13
2024-01-24T07:13:04.867Z,51.03
2024-01-24T07:16:32.455Z,42.85
2024-01-24T07:22:43.595Z,43.47
2024-01-24T07:25:31.266Z,46.92
2024-01-24T07:28:23.040Z,43.15
2024-01-24T07:31:13.532Z,48.42
2024-01-24T07:34:09.968Z,40.13
2024-01-24T07:37:03.927Z,37.60
2024-01-24T07:40:03.761Z,37.80
2024-01-24T07:43:12.990Z,34.97
2024-01-24T07:46:28.012Z,32.42
2024-01-24T07:49:25.788Z,35.67
2024-01-24T07:52:41.051Z,36.10
2024-01-24T07:55:54.201Z,35.47
2024-01-24T08:02:21.037Z,38.20
2024-01-24T08:05:43.831Z,37.35
2024-01-24T08:08:35.537Z,33.60
2024-01-24T08:11:34.928Z,35.38
2024-01-24T08:14:42.450Z,31.00
2024-01-24T08:17:40.497Z,34.60
2024-01-24T08:20:32.324Z,30.25
2024-01-24T08:23:48.808Z,34.63
2024-01-24T08:30:02.676Z,26.45
2024-01-24T08:32:49.898Z,31.10
2024-01-24T08:35:41.432Z,31.58
2024-01-24T08:38:27.695Z,31.98
2024-01-24T08:41:15.500Z,34.08
2024-01-24T08:44:07.417Z,32.90
2024-01-24T08:47:03.060Z,32.45
2024-01-24T08:50:00.114Z,28.33
2024-01-24T08:52:55.892Z,30.00
2024-01-24T08:55:48.040Z,33.38
2024-01-24T08:58:35.472Z,28.27
2024-01-24T09:01:31.182Z,32.50
2024-01-24T09:04:27.457Z,31.75
2024-01-24T09:07:23.696Z,31.50
2024-01-24T09:10:11.837Z,28.80
2024-01-24T09:13:31.241Z,25.98
2024-01-24T09:16:21.743Z,26.27
2024-01-24T09:19:17.542Z,24.88
2024-01-24T09:22:09.128Z,26.33
2024-01-24T09:24:56.484Z,26.35
2024-01-24T09:27:50.384Z,23.48
2024-01-24T09:30:55.666Z,22.90
2024-01-24T09:34:18.829Z,27.48
2024-01-24T09:41:06.126Z,22.70
2024-01-24T09:44:00.825Z,23.20
2024-01-24T09:46:56.257Z,24.55
2024-01-24T09:49:52.383Z,25.30
2024-01-24T09:52:44.885Z,25.63
2024-01-24T09:55:38.555Z,26.98
2024-01-24T09:58:28.672Z,27.98
2024-01-24T10:01:18.247Z,23.45
2024-01-24T10:04:06.703Z,26.17
2024-01-24T10:06:53.953Z,23.13
2024-01-24T10:09:42.961Z,20.27
2024-01-24T10:12:28.813Z,21.90
2024-01-24T10:15:26.917Z,22.88
2024-01-24T10:18:26.233Z,17.33
2024-01-24T10:21:14.924Z,19.83
2024-01-24T10:24:02.630Z,24.05
2024-01-24T10:26:49.943Z,24.40
2024-01-24T10:29:51.057Z,24.25
2024-01-24T10:32:50.251Z,17.95
2024-01-24T10:35:41.522Z,21.15
2024-01-24T10:38:32.590Z,22.27
2024-01-24T10:41:39.147Z,20.35
2024-01-24T10:44:43.589Z,19.73
2024-01-24T10:47:41.708Z,20.50
2024-01-24T10:50:31.544Z,18.08
2024-01-24T10:53:19.717Z,19.85
2024-01-24T10:56:10.397Z,22.70
2024-01-24T11:01:58.937Z,19.90
2024-01-24T11:04:53.424Z,18.80
2024-01-24T11:07:56.184Z,18.02
2024-01-24T11:10:47.766Z,20.80
2024-01-24T11:13:44.362Z,19.10
2024-01-24T11:16:44.285Z,18.48
2024-01-24T11:19:35.449Z,20.05
2024-01-24T11:22:30.733Z,29.77
2024-01-24T11:25:44.112Z,22.67
2024-01-24T11:28:32.098Z,19.25
2024-01-24T11:35:39.632Z,19.13
2024-01-24T11:38:36.827Z,20.40
2024-01-24T11:41:28.370Z,17.52
2024-01-24T11:44:26.815Z,17.17
2024-01-24T11:47:16.819Z,16.75
2024-01-24T11:50:03.544Z,17.85
2024-01-24T11:52:59.392Z,18.08
2024-01-24T11:56:03.763Z,19.83
2024-01-24T11:58:51.927Z,16.05
2024-01-24T12:01:38.340Z,20.75
2024-01-24T12:04:45.992Z,19.15
2024-01-24T12:07:49.918Z,16.70
2024-01-24T12:10:50.858Z,18.05
2024-01-24T12:13:55.937Z,22.52
2024-01-24T12:16:50.934Z,21.65
2024-01-24T12:19:46.289Z,19.67
2024-01-24T12:22:48.948Z,17.83
2024-01-24T12:25:44.574Z,16.48
2024-01-24T12:28:31.623Z,16.40
2024-01-24T12:31:18.001Z,21.50
2024-01-24T12:34:15.482Z,21.58
2024-01-24T12:37:02.176Z,17.20
2024-01-24T12:39:59.310Z,20.60
2024-01-24T12:43:03.708Z,22.02
2024-01-24T12:45:57.800Z,21.65
2024-01-24T12:49:07.952Z,16.45
2024-01-24T12:52:18.018Z,16.42
2024-01-24T12:55:14.984Z,12.10
2024-01-24T12:58:17.480Z,14.70
2024-01-24T13:01:12.771Z,13.65
2024-01-24T13:04:05.551Z,12.98
2024-01-24T13:07:14.356Z,10.57
2024-01-24T13:10:10.704Z,11.00
2024-01-24T13:13:14.332Z,8.55
2024-01-24T13:16:02.032Z,10.20
2024-01-24T13:19:08.140Z,10.55
2024-01-24T13:22:05.462Z,8.18
2024-01-24T13:25:04.470Z,11.70
2024-01-24T13:28:17.052Z,11.68
2024-01-24T13:31:13.645Z,8.85
2024-01-24T13:34:05.680Z,9.73
2024-01-24T13:37:10.464Z,9.13
2024-01-24T13:40:17.187Z,9.27
2024-01-24T13:43:22.754Z,8.70
2024-01-24T13:46:20.781Z,8.75
2024-01-24T13:49:23.330Z,11.38
2024-01-24T13:52:27.969Z,11.38
2024-01-24T13:55:17.940Z,12.50
2024-01-24T13:58:14.573Z,10.40
2024-01-24T14:01:12.950Z,11.73
2024-01-24T14:07:54.171Z,14.48
2024-01-24T14:10:52.449Z,14.77
2024-01-24T14:13:50.788Z,13.93
2024-01-24T14:16:41.925Z,16.70
2024-01-24T14:20:05.114Z,15.32
2024-01-24T14:23:04.290Z,14.90
2024-01-24T14:26:02.886Z,18.17
2024-01-24T14:28:50.868Z,22.00
2024-01-24T14:31:46.853Z,21.42
2024-01-24T14:34:42.155Z,20.45
2024-01-24T14:37:35.235Z,21.42
2024-01-24T14:40:38.868Z,17.50
2024-01-24T14:43:35.931Z,23.13
2024-01-24T14:46:35.946Z,19.58
2024-01-24T14:49:49.771Z,28.75
2024-01-24T14:52:36.812Z,26.42
2024-01-24T14:55:37.609Z,22.63
2024-01-24T14:58:30.780Z,26.85
2024-01-24T15:01:49.335Z,20.52
2024-01-24T15:04:55.952Z,23.40
2024-01-24T15:07:51.446Z,21.40
2024-01-24T15:13:49.400Z,19.52
2024-01-24T15:16:49.904Z,26.65
2024-01-24T15:19:51.647Z,26.65
2024-01-24T15:22:41.844Z,26.27
2024-01-24T15:25:51.577Z,30.23
2024-01-24T15:28:40.458Z,20.50
2024-01-24T15:31:51.228Z,22.88
2024-01-24T15:34:53.577Z,26.27
2024-01-24T15:38:00.750Z,25.25
2024-01-24T15:50:01.155Z,18.83
2024-01-24T15:52:52.762Z,18.45
2024-01-24T15:55:52.030Z,26.55
2024-01-24T15:58:59.785Z,23.52
2024-01-24T16:01:57.366Z,21.33
2024-01-24T16:05:18.432Z,23.48
2024-01-24T16:08:24.747Z,19.15
2024-01-24T16:11:21.440Z,16.52
2024-01-24T16:14:18.625Z,19.23
2024-01-24T16:17:26.355Z,18.98
2024-01-24T16:20:28.776Z,17.27
2024-01-24T16:23:24.652Z,16.25
2024-01-24T16:26:16.533Z,18.77
2024-01-24T16:29:10.231Z,18.85
2024-01-24T16:32:04.401Z,16.67
2024-01-24T16:34:57.560Z,20.02
2024-01-24T16:37:46.922Z,19.15
2024-01-24T16:43:37.365Z,17.25
2024-01-24T16:46:31.474Z,16.40
2024-01-24T16:49:27.544Z,14.75
2024-01-24T16:52:17.107Z,14.98
2024-01-24T16:55:12.536Z,16.63
2024-01-24T16:58:16.454Z,14.35
2024-01-24T17:01:11.355Z,15.40
2024-01-24T17:04:13.276Z,17.65
2024-01-24T17:07:03.438Z,18.80
2024-01-24T17:09:58.532Z,17.90
2024-01-24T17:12:57.459Z,17.85
2024-01-24T17:15:52.492Z,17.17
2024-01-24T17:18:43.815Z,16.38
2024-01-24T17:21:29.388Z,15.88
2024-01-24T17:24:20.612Z,17.13
2024-01-24T17:27:27.804Z,15.00
2024-01-24T17:30:20.505Z,16.83
2024-01-24T17:33:15.265Z,12.40
2024-01-24T17:36:12.514Z,16.83
2024-01-24T17:39:03.197Z,15.40
2024-01-24T17:44:51.138Z,13.68
2024-01-24T17:50:38.851Z,12.90
2024-01-24T17:53:39.667Z,13.70
2024-01-24T17:59:41.463Z,13.57
2024-01-24T18:02:42.718Z,15.77
2024-01-24T18:06:04.968Z,14.18
2024-01-24T18:09:10.567Z,14.65
2024-01-24T18:12:15.558Z,12.43
2024-01-24T18:15:11.265Z,12.25
2024-01-24T18:18:15.883Z,9.77
2024-01-24T18:21:31.574Z,12.90
2024-01-24T18:24:23.910Z,13.40
2024-01-24T18:27:21.847Z,10.50
2024-01-24T18:30:28.416Z,13.93
2024-01-24T18:33:33.069Z,14.00
2024-01-24T18:36:42.700Z,10.88
2024-01-24T18:40:00.429Z,12.48
2024-01-24T18:42:56.193Z,13.82
2024-01-24T18:46:05.684Z,12.68
2024-01-24T18:49:05.709Z,9.80
2024-01-24T18:52:03.912Z,14.85
2024-01-24T18:54:55.960Z,13.18
2024-01-24T18:57:53.888Z,13.07
2024-01-24T19:00:53.406Z,12.85
2024-01-24T19:04:00.612Z,9.38
2024-01-24T19:06:57.309Z,13.73
2024-01-24T19:09:50.438Z,12.68
2024-01-24T19:12:44.443Z,14.30
2024-01-24T19:15:40.325Z,13.20
2024-01-24T19:18:32.868Z,15.40
2024-01-24T19:21:30.608Z,14.32
2024-01-24T19:24:21.228Z,15.32
2024-01-24T19:27:16.865Z,14.63
2024-01-24T19:30:11.655Z,15.48
2024-01-24T19:33:12.342Z,17.63
2024-01-24T19:36:13.459Z,17.88
2024-01-24T19:39:12.754Z,13.82
2024-01-24T19:42:06.410Z,13.93
2024-01-24T19:45:04.289Z,15.57
2024-01-24T19:47:56.413Z,14.02
2024-01-24T19:50:54.298Z,18.00
2024-01-24T19:53:54.422Z,15.43
2024-01-24T19:56:47.596Z,14.90
2024-01-24T19:59:37.522Z,13.73
2024-01-24T20:02:28.864Z,15.20
2024-01-24T20:05:28.078Z,16.25
2024-01-24T20:08:35.194Z,19.17
2024-01-24T20:11:32.922Z,17.45
2024-01-24T20:14:45.341Z,17.58
2024-01-24T20:17:50.832Z,14.00
2024-01-24T20:20:53.945Z,18.40
2024-01-24T20:23:46.363Z,20.88
2024-01-24T20:26:35.965Z,21.50
2024-01-24T20:29:39.386Z,21.10
2024-01-24T20:32:31.999Z,21.83
2024-01-24T20:35:36.189Z,18.83
2024-01-24T20:38:36.704Z,19.67
2024-01-24T20:41:28.066Z,20.65
2024-01-24T20:44:28.290Z,17.63
2024-01-24T20:47:44.057Z,20.02
2024-01-24T20:50:51.426Z,23.70
2024-01-24T20:54:10.349Z,18.90
2024-01-24T20:56:59.655Z,18.15
2024-01-24T20:59:50.940Z,16.45
2024-01-24T21:02:43.606Z,14.77
2024-01-24T21:05:42.610Z,15.50
2024-01-24T21:08:34.451Z,15.35
2024-01-24T21:14:28.668Z,15.45
2024-01-24T21:17:33.992Z,13.90
2024-01-24T21:20:36.687Z,14.30
2024-01-24T21:23:41.533Z,14.77
2024-01-24T21:26:43.343Z,14.43
2024-01-24T21:29:34.789Z,11.77
2024-01-24T21:32:34.691Z,13.68
2024-01-24T21:35:30.697Z,11.82
2024-01-24T21:38:26.632Z,14.43
2024-01-24T21:44:16.483Z,12.00
2024-01-24T21:47:04.979Z,10.93
2024-01-24T21:50:00.923Z,11.35
2024-01-24T21:52:56.084Z,13.43
2024-01-24T21:55:59.400Z,12.07
2024-01-24T21:58:57.444Z,12.55
2024-01-24T22:01:49.133Z,13.43
2024-01-24T22:04:48.225Z,21.45
2024-01-24T22:07:44.274Z,20.73
2024-01-24T22:10:48.500Z,16.10
2024-01-24T22:13:49.499Z,19.95
2024-01-24T22:16:43.083Z,17.98
2024-01-24T22:19:48.855Z,15.82
2024-01-24T22:22:38.827Z,16.45
2024-01-24T22:25:42.160Z,18.40
2024-01-24T22:28:33.380Z,19.08
2024-01-24T22:31:28.487Z,17.67
2024-01-24T22:34:24.673Z,16.10
2024-01-24T22:37:20.273Z,16.58
2024-01-24T22:40:20.431Z,17.10
2024-01-24T22:43:18.887Z,16.40
2024-01-24T22:46:09.227Z,21.42
2024-01-24T22:49:01.330Z,23.58
2024-01-24T22:52:04.269Z,18.33
2024-01-24T22:55:06.336Z,19.33
2024-01-24T22:57:56.267Z,18.55
2024-01-24T23:01:01.538Z,20.17
2024-01-24T23:03:59.872Z,16.85
2024-01-24T23:06:51.646Z,17.77
2024-01-24T23:09:54.295Z,16.42
2024-01-24T23:12:51.028Z,18.10
2024-01-24T23:15:53.565Z,18.05
2024-01-24T23:18:43.129Z,16.02
2024-01-24T23:21:55.374Z,18.65
2024-01-24T23:25:02.439Z,18.05
2024-01-24T23:27:57.770Z,18.48
2024-01-24T23:30:54.777Z,16.75
2024-01-24T23:33:51.875Z,18.75
2024-01-24T23:36:50.013Z,17.17
2024-01-24T23:39:41.698Z,18.23
2024-01-24T23:42:35.560Z,17.50
2024-01-24T23:45:37.782Z,17.70
2024-01-24T23:48:44.037Z,16.73
2024-01-24T23:51:45.258Z,17.95
2024-01-24T23:54:53.128Z,17.77
2024-01-24T23:57:48.275Z,17.13
